createdAt,value
2023-02-12T08:38:41.654Z,71.00
2023-02-12T08:43:46.573Z,64.10
2023-02-12T08:48:54.174Z,64.50
2023-02-12T08:54:01.480Z,64.70
2023-02-12T08:59:08.681Z,64.70
2023-02-12T09:04:18.293Z,64.40
2023-02-12T09:09:23.077Z,64.00
2023-02-12T09:14:27.649Z,63.50
2023-02-12T09:19:31.947Z,63.20
2023-02-12T09:24:35.773Z,63.40
2023-02-12T09:29:40.078Z,62.10
2023-02-12T09:34:44.802Z,62.40
2023-02-12T09:39:51.207Z,62.10
2023-02-12T09:45:18.581Z,62.00
2023-02-12T09:50:35.253Z,61.30
2023-02-12T09:55:41.693Z,60.70
2023-02-12T10:00:45.642Z,60.40
2023-02-12T10:05:59.534Z,59.80
2023-02-12T10:11:31.048Z,59.00
2023-02-12T10:16:43.818Z,58.70
2023-02-12T10:21:47.969Z,57.90
2023-02-12T10:26:59.152Z,57.00
2023-02-12T10:32:53.413Z,56.10
2023-02-12T10:38:14.759Z,55.60
2023-02-12T10:43:19.427Z,53.50
2023-02-12T10:48:41.226Z,53.30
2023-02-12T10:53:47.744Z,53.50
2023-02-12T11:04:27.181Z,51.50
2023-02-12T11:09:36.203Z,50.70
2023-02-12T11:14:40.714Z,50.40
2023-02-12T11:19:45.451Z,50.20
2023-02-12T11:25:02.064Z,50.30
2023-02-12T11:30:19.781Z,47.90
2023-02-12T11:35:28.675Z,46.00
2023-02-12T11:40:53.509Z,44.50
2023-02-12T11:45:58.256Z,43.70
2023-02-12T11:51:05.812Z,42.50
2023-02-12T11:56:11.873Z,42.40
2023-02-12T12:01:32.339Z,41.60
2023-02-12T12:06:58.968Z,40.20
2023-02-12T12:12:39.231Z,36.30
2023-02-12T12:18:06.406Z,37.10
2023-02-12T12:23:28.927Z,38.30
2023-02-12T12:29:00.728Z,33.90
2023-02-12T12:34:07.957Z,31.70
2023-02-12T12:39:25.218Z,35.50
2023-02-12T12:44:30.666Z,34.20
2023-02-12T12:50:02.265Z,33.80
2023-02-12T12:55:28.296Z,30.60
2023-02-12T13:00:44.392Z,27.90
2023-02-12T13:06:17.235Z,29.20
2023-02-12T13:11:52.059Z,26.20
2023-02-12T13:17:27.526Z,25.20
2023-02-12T13:22:50.569Z,25.30
2023-02-12T13:27:58.866Z,27.80
2023-02-12T13:33:17.116Z,27.80
2023-02-12T13:38:26.556Z,26.90
2023-02-12T13:44:00.297Z,27.50
2023-02-12T13:49:51.814Z,25.30
2023-02-12T13:55:35.962Z,24.60
2023-02-12T14:00:52.561Z,24.50
2023-02-12T14:06:20.457Z,26.70
2023-02-12T14:11:27.005Z,24.90
2023-02-12T14:16:34.324Z,27.00
2023-02-12T14:21:41.783Z,26.50
2023-02-12T14:26:45.690Z,27.40
2023-02-12T14:31:51.258Z,30.40
2023-02-12T14:37:18.484Z,32.80
2023-02-12T14:42:25.876Z,34.40
2023-02-12T14:47:32.913Z,35.10
2023-02-12T14:52:42.538Z,35.90
2023-02-12T14:57:46.710Z,36.40
2023-02-12T15:02:55.994Z,37.50
2023-02-12T15:08:25.466Z,38.00
2023-02-12T15:13:54.070Z,39.40
2023-02-12T15:19:15.864Z,38.50
2023-02-12T15:24:24.725Z,39.50
2023-02-12T15:29:39.298Z,40.00
2023-02-12T15:34:43.548Z,40.20
2023-02-12T15:39:53.650Z,40.90
2023-02-12T15:45:16.185Z,41.30
2023-02-12T15:50:22.967Z,42.40
2023-02-12T15:55:35.085Z,42.30
2023-02-12T16:00:44.355Z,43.10
2023-02-12T16:05:50.304Z,43.10
2023-02-12T16:10:56.924Z,43.40
2023-02-12T16:16:13.565Z,44.50
2023-02-12T16:21:22.052Z,44.80
2023-02-12T16:26:27.250Z,45.20
2023-02-12T16:31:31.908Z,46.30
2023-02-12T16:36:36.822Z,46.60
2023-02-12T16:41:56.709Z,48.20
2023-02-12T16:47:02.473Z,48.80
2023-02-12T16:52:32.268Z,49.70
2023-02-12T16:57:37.346Z,49.60
2023-02-12T17:02:41.916Z,50.80
2023-02-12T17:07:46.730Z,50.70
2023-02-12T17:12:53.175Z,50.70
2023-02-12T17:17:57.295Z,50.90
2023-02-12T17:23:01.102Z,51.60
2023-02-12T17:28:05.692Z,51.70
2023-02-12T17:33:10.571Z,52.00
2023-02-12T17:44:17.133Z,52.70
2023-02-12T17:49:22.316Z,52.60
2023-02-12T17:54:27.055Z,55.30
2023-02-12T17:59:31.179Z,55.90
2023-02-12T18:04:36.881Z,56.70
2023-02-12T18:09:41.081Z,56.40
2023-02-12T18:14:49.453Z,56.40
2023-02-12T18:19:53.836Z,57.10
2023-02-12T18:24:59.092Z,57.30
2023-02-12T18:30:04.003Z,57.80
2023-02-12T18:35:08.862Z,58.10
2023-02-12T18:40:12.881Z,59.30
2023-02-12T18:45:17.662Z,58.90
